Thunder radar more information blitzortung!


Radar de pluja more information rain snow radar


Visita la nostra xarxa de llocs de meteo:

Template documentation
and downloads

And another site



No particular awareness of the weather is required.    There are no Weather-warnings

Pagina Historial Weather Underground text

Diari Resum Novembre 11, 2017 Unitats:  Tant    Imperial   Mètric
« Previous Dia
SegĂźent Dia »
Diari Setmana Mensual Anual Personalitzada
  Maxima: Minima: Media:
Temperatura: 62.1 °F /  16.7 °C 43.2 °F /  6.2 °C 50.5 °F /  10.3 °C
Punt de rosada: 47.8 °F /  8.8 °C 31.8 °F /  -0.1 °C 38.7 °F /  3.7 °C
Humitat: 68 % 57 % 63 %
Wind Speed: 7.8 mph /  12.6 km/h - 2.1 mph /  3.3 km/h
RĂ fegues de vent: 7.8 mph /  12.6 km/h - -
Vent:- - SSW
Pression baro: 30.3 in /  1026.0 hPa 30.2 in /  1020.9 hPa -
Precipitacions: 0 in /  0.0 mm    
Historical Graphs
 
 
Dades de taula per Novembre 11, 2017
Temps Temperatura Punt de rosada Pression baro Vent Wind Speed RĂ fegues de vent Humitat Rainfall Rate (Hourly)
00:01 45 °F /  7.2 °C 31.8 °F /  -0.1 °C 30.3 in /  1026.0 hPa Calm     60 % 0 in /  0.0 mm
00:06 45 °F /  7.2 °C 31.8 °F /  -0.1 °C 30.3 in /  1026.0 hPa West 1.2 mph /  1.9 km/h 1.2 mph /  1.9 km/h 60 % 0 in /  0.0 mm
00:11 45 °F /  7.2 °C 31.8 °F /  -0.1 °C 30.3 in /  1026.0 hPa Calm     60 % 0 in /  0.0 mm
00:16 45 °F /  7.2 °C 31.8 °F /  -0.1 °C 30.3 in /  1026.0 hPa West 1.4 mph /  2.3 km/h   60 % 0 in /  0.0 mm
00:21 45 °F /  7.2 °C 31.8 °F /  -0.1 °C 30.3 in /  1024.9 hPa West 2.3 mph /  3.7 km/h 2.3 mph /  3.7 km/h 60 % 0 in /  0.0 mm
00:26 45.1 °F /  7.3 °C 32.2 °F /  0.1 °C 30.3 in /  1024.9 hPa West 1.2 mph /  1.9 km/h 1.2 mph /  1.9 km/h 60 % 0 in /  0.0 mm
00:31 45 °F /  7.2 °C 31.8 °F /  -0.1 °C 30.3 in /  1024.9 hPa West 1.2 mph /  1.9 km/h 1.2 mph /  1.9 km/h 60 % 0 in /  0.0 mm
00:36 45.1 °F /  7.3 °C 32.2 °F /  0.1 °C 30.3 in /  1026.0 hPa West 1.2 mph /  1.9 km/h   60 % 0 in /  0.0 mm
00:41 45.1 °F /  7.3 °C 32.2 °F /  0.1 °C 30.3 in /  1026.0 hPa West 1.6 mph /  2.6 km/h   60 % 0 in /  0.0 mm
00:46 45.3 °F /  7.4 °C 32.7 °F /  0.4 °C 30.3 in /  1026.0 hPa NE 2.3 mph /  3.7 km/h 2.3 mph /  3.7 km/h 61 % 0 in /  0.0 mm
00:51 45.1 °F /  7.3 °C 32.5 °F /  0.3 °C 30.3 in /  1024.9 hPa NNE 1.4 mph /  2.3 km/h   61 % 0 in /  0.0 mm
00:56 45 °F /  7.2 °C 32.4 °F /  0.2 °C 30.3 in /  1024.9 hPa WNW 1.2 mph /  1.9 km/h 1.2 mph /  1.9 km/h 61 % 0 in /  0.0 mm
01:01 44.8 °F /  7.1 °C 32.2 °F /  0.1 °C 30.3 in /  1024.9 hPa NNE 2.3 mph /  3.7 km/h 2.3 mph /  3.7 km/h 61 % 0 in /  0.0 mm
01:06 44.6 °F /  7.0 °C 32 °F /  0.0 °C 30.3 in /  1024.9 hPa NW 2.3 mph /  3.7 km/h   61 % 0 in /  0.0 mm
01:11 44.6 °F /  7.0 °C 32 °F /  0.0 °C 30.3 in /  1024.9 hPa NNW 2.3 mph /  3.7 km/h 2.3 mph /  3.7 km/h 61 % 0 in /  0.0 mm
01:12 44.6 °F /  7.0 °C 32 °F /  0.0 °C 30.3 in /  1024.9 hPa WNW 2.3 mph /  3.7 km/h 2.3 mph /  3.7 km/h 61 % 0 in /  0.0 mm
01:17 44.4 °F /  6.9 °C 31.8 °F /  -0.1 °C 30.3 in /  1024.9 hPa WSW 2.3 mph /  3.7 km/h 2.3 mph /  3.7 km/h 61 % 0 in /  0.0 mm
01:22 44.4 °F /  6.9 °C 32.2 °F /  0.1 °C 30.3 in /  1026.0 hPa WNW 2.3 mph /  3.7 km/h 2.3 mph /  3.7 km/h 62 % 0 in /  0.0 mm
01:27 44.2 °F /  6.8 °C 32 °F /  0.0 °C 30.3 in /  1026.0 hPa WSW 2.3 mph /  3.7 km/h 2.3 mph /  3.7 km/h 62 % 0 in /  0.0 mm
01:32 44.2 °F /  6.8 °C 32 °F /  0.0 °C 30.3 in /  1026.0 hPa WNW 1.2 mph /  1.9 km/h   62 % 0 in /  0.0 mm
01:37 44.1 °F /  6.7 °C 31.8 °F /  -0.1 °C 30.3 in /  1024.9 hPa WNW 2.3 mph /  3.7 km/h 2.3 mph /  3.7 km/h 62 % 0 in /  0.0 mm
01:42 44.2 °F /  6.8 °C 32 °F /  0.0 °C 30.3 in /  1024.9 hPa WNW 2.3 mph /  3.7 km/h 2.3 mph /  3.7 km/h 62 % 0 in /  0.0 mm
01:47 44.2 °F /  6.8 °C 32 °F /  0.0 °C 30.3 in /  1024.9 hPa West 2.3 mph /  3.7 km/h 2.3 mph /  3.7 km/h 62 % 0 in /  0.0 mm
01:52 44.2 °F /  6.8 °C 32 °F /  0.0 °C 30.3 in /  1024.9 hPa NNE 3.5 mph /  5.6 km/h 3.5 mph /  5.6 km/h 62 % 0 in /  0.0 mm
01:57 44.4 °F /  6.9 °C 32.5 °F /  0.3 °C 30.3 in /  1024.9 hPa WNW 2.2 mph /  3.5 km/h 2.2 mph /  3.5 km/h 63 % 0 in /  0.0 mm
02:02 44.4 °F /  6.9 °C 32.2 °F /  0.1 °C 30.3 in /  1024.9 hPa WNW 2.3 mph /  3.7 km/h 2.3 mph /  3.7 km/h 62 % 0 in /  0.0 mm
02:07 44.4 °F /  6.9 °C 32.2 °F /  0.1 °C 30.2 in /  1023.9 hPa NNW 2.3 mph /  3.7 km/h 2.3 mph /  3.7 km/h 62 % 0 in /  0.0 mm
02:12 44.6 °F /  7.0 °C 32.4 °F /  0.2 °C 30.2 in /  1023.9 hPa NW 2.3 mph /  3.7 km/h 2.3 mph /  3.7 km/h 62 % 0 in /  0.0 mm
02:17 44.6 °F /  7.0 °C 32.7 °F /  0.4 °C 30.2 in /  1023.9 hPa North 2.3 mph /  3.7 km/h   63 % 0 in /  0.0 mm
02:22 44.6 °F /  7.0 °C 32.7 °F /  0.4 °C 30.2 in /  1023.9 hPa WNW 2.3 mph /  3.7 km/h 2.3 mph /  3.7 km/h 63 % 0 in /  0.0 mm
02:27 44.6 °F /  7.0 °C 32.4 °F /  0.2 °C 30.2 in /  1023.9 hPa WNW 2.3 mph /  3.7 km/h 2.3 mph /  3.7 km/h 62 % 0 in /  0.0 mm
02:32 44.4 °F /  6.9 °C 32.5 °F /  0.3 °C 30.2 in /  1023.9 hPa NW 1.4 mph /  2.3 km/h 2.2 mph /  3.5 km/h 63 % 0 in /  0.0 mm
02:37 44.4 °F /  6.9 °C 32.2 °F /  0.1 °C 30.2 in /  1023.9 hPa West 2.2 mph /  3.5 km/h 2.2 mph /  3.5 km/h 62 % 0 in /  0.0 mm
02:42 44.2 °F /  6.8 °C 32 °F /  0.0 °C 30.2 in /  1023.9 hPa WSW 2.3 mph /  3.7 km/h 2.3 mph /  3.7 km/h 62 % 0 in /  0.0 mm
02:47 44.2 °F /  6.8 °C 32.4 °F /  0.2 °C 30.2 in /  1023.9 hPa West 1.2 mph /  1.9 km/h 1.2 mph /  1.9 km/h 63 % 0 in /  0.0 mm
02:48 44.4 °F /  6.9 °C 32.5 °F /  0.3 °C 30.2 in /  1023.9 hPa West 1.2 mph /  1.9 km/h 1.2 mph /  1.9 km/h 63 % 0 in /  0.0 mm
02:53 44.4 °F /  6.9 °C 32.5 °F /  0.3 °C 30.2 in /  1023.9 hPa WNW 1.6 mph /  2.6 km/h 1.6 mph /  2.6 km/h 63 % 0 in /  0.0 mm
02:58 44.6 °F /  7.0 °C 32.7 °F /  0.4 °C 30.2 in /  1023.9 hPa WNW 1.4 mph /  2.3 km/h 1.4 mph /  2.3 km/h 63 % 0 in /  0.0 mm
03:03 44.4 °F /  6.9 °C 32.5 °F /  0.3 °C 30.2 in /  1023.9 hPa NW 0.9 mph /  1.4 km/h   63 % 0 in /  0.0 mm
03:08 44.4 °F /  6.9 °C 32.5 °F /  0.3 °C 30.2 in /  1023.9 hPa WNW 1.4 mph /  2.3 km/h   63 % 0 in /  0.0 mm
03:13 44.4 °F /  6.9 °C 32.5 °F /  0.3 °C 30.2 in /  1023.9 hPa WNW 2.3 mph /  3.7 km/h 2.3 mph /  3.7 km/h 63 % 0 in /  0.0 mm
03:18 44.6 °F /  7.0 °C 32.7 °F /  0.4 °C 30.2 in /  1023.9 hPa SW 2.3 mph /  3.7 km/h 2.3 mph /  3.7 km/h 63 % 0 in /  0.0 mm
03:23 44.6 °F /  7.0 °C 32.7 °F /  0.4 °C 30.2 in /  1023.9 hPa NW 2.3 mph /  3.7 km/h 2.3 mph /  3.7 km/h 63 % 0 in /  0.0 mm
03:28 44.4 °F /  6.9 °C 33.1 °F /  0.6 °C 30.2 in /  1023.9 hPa South 2.3 mph /  3.7 km/h 2.3 mph /  3.7 km/h 64 % 0 in /  0.0 mm
03:33 44.2 °F /  6.8 °C 32.4 °F /  0.2 °C 30.2 in /  1023.9 hPa WSW 2.9 mph /  4.7 km/h 2.9 mph /  4.7 km/h 63 % 0 in /  0.0 mm
03:34 44.2 °F /  6.8 °C 32.4 °F /  0.2 °C 30.2 in /  1023.9 hPa WSW 2.6 mph /  4.2 km/h 2.6 mph /  4.2 km/h 63 % 0 in /  0.0 mm
03:39 44.2 °F /  6.8 °C 32.4 °F /  0.2 °C 30.2 in /  1023.9 hPa West 2 mph /  3.2 km/h   63 % 0 in /  0.0 mm
03:44 44.2 °F /  6.8 °C 32.4 °F /  0.2 °C 30.2 in /  1023.9 hPa WSW 3.5 mph /  5.6 km/h 3.5 mph /  5.6 km/h 63 % 0 in /  0.0 mm
03:49 44.4 °F /  6.9 °C 32.5 °F /  0.3 °C 30.2 in /  1023.9 hPa West 2.3 mph /  3.7 km/h 2.3 mph /  3.7 km/h 63 % 0 in /  0.0 mm
03:54 44.6 °F /  7.0 °C 33.3 °F /  0.7 °C 30.2 in /  1023.9 hPa NNW 2.3 mph /  3.7 km/h 2.3 mph /  3.7 km/h 64 % 0 in /  0.0 mm
03:59 44.6 °F /  7.0 °C 33.3 °F /  0.7 °C 30.2 in /  1023.9 hPa ENE 2.3 mph /  3.7 km/h 2.3 mph /  3.7 km/h 64 % 0 in /  0.0 mm
04:04 44.1 °F /  6.7 °C 32.7 °F /  0.4 °C 30.3 in /  1024.9 hPa NNE 3.5 mph /  5.6 km/h 3.5 mph /  5.6 km/h 64 % 0 in /  0.0 mm
04:09 43.9 °F /  6.6 °C 32.5 °F /  0.3 °C 30.3 in /  1024.9 hPa ENE 2.4 mph /  3.9 km/h 2.4 mph /  3.9 km/h 64 % 0 in /  0.0 mm
04:16 43.5 °F /  6.4 °C 32.2 °F /  0.1 °C 30.3 in /  1024.9 hPa NE 3.5 mph /  5.6 km/h 3.5 mph /  5.6 km/h 64 % 0 in /  0.0 mm
04:21 43.3 °F /  6.3 °C 32.4 °F /  0.2 °C 30.2 in /  1023.9 hPa NNE 3.5 mph /  5.6 km/h 3.5 mph /  5.6 km/h 65 % 0 in /  0.0 mm
04:22 43.2 °F /  6.2 °C 32.2 °F /  0.1 °C 30.2 in /  1023.9 hPa ENE 3.5 mph /  5.6 km/h 3.5 mph /  5.6 km/h 65 % 0 in /  0.0 mm
04:23 43.2 °F /  6.2 °C 32.2 °F /  0.1 °C 30.2 in /  1023.9 hPa NNE 3.5 mph /  5.6 km/h 3.5 mph /  5.6 km/h 65 % 0 in /  0.0 mm
04:24 43.2 °F /  6.2 °C 32.2 °F /  0.1 °C 30.2 in /  1023.9 hPa NNE 3.5 mph /  5.6 km/h 3.5 mph /  5.6 km/h 65 % 0 in /  0.0 mm
04:28 43.2 °F /  6.2 °C 32.2 °F /  0.1 °C 30.2 in /  1023.9 hPa North 4.6 mph /  7.4 km/h 4.6 mph /  7.4 km/h 65 % 0 in /  0.0 mm
04:29 43.2 °F /  6.2 °C 32.2 °F /  0.1 °C 30.2 in /  1023.9 hPa NE 3.5 mph /  5.6 km/h 3.5 mph /  5.6 km/h 65 % 0 in /  0.0 mm
04:33 43.2 °F /  6.2 °C 32.2 °F /  0.1 °C 30.2 in /  1023.9 hPa North 3.5 mph /  5.6 km/h 3.5 mph /  5.6 km/h 65 % 0 in /  0.0 mm
04:38 43.2 °F /  6.2 °C 32.2 °F /  0.1 °C 30.2 in /  1023.9 hPa NW 2 mph /  3.2 km/h 2 mph /  3.2 km/h 65 % 0 in /  0.0 mm
04:43 43.2 °F /  6.2 °C 32.2 °F /  0.1 °C 30.2 in /  1023.9 hPa West 3.5 mph /  5.6 km/h 3.5 mph /  5.6 km/h 65 % 0 in /  0.0 mm
04:48 43.2 °F /  6.2 °C 32.2 °F /  0.1 °C 30.2 in /  1023.9 hPa NNW 2.9 mph /  4.7 km/h 2.9 mph /  4.7 km/h 65 % 0 in /  0.0 mm
04:53 43.3 °F /  6.3 °C 32.4 °F /  0.2 °C 30.2 in /  1023.9 hPa NNW 2.4 mph /  3.9 km/h 2.6 mph /  4.2 km/h 65 % 0 in /  0.0 mm
04:58 43.5 °F /  6.4 °C 32.5 °F /  0.3 °C 30.2 in /  1023.9 hPa North 3.5 mph /  5.6 km/h 3.5 mph /  5.6 km/h 65 % 0 in /  0.0 mm
05:03 43.5 °F /  6.4 °C 32.5 °F /  0.3 °C 30.2 in /  1023.9 hPa WNW 2.3 mph /  3.7 km/h 2.3 mph /  3.7 km/h 65 % 0 in /  0.0 mm
05:08 43.5 °F /  6.4 °C 32.5 °F /  0.3 °C 30.2 in /  1023.9 hPa NE 3.5 mph /  5.6 km/h 3.5 mph /  5.6 km/h 65 % 0 in /  0.0 mm
05:13 43.7 °F /  6.5 °C 33.1 °F /  0.6 °C 30.2 in /  1023.9 hPa ENE 2.3 mph /  3.7 km/h 2.3 mph /  3.7 km/h 66 % 0 in /  0.0 mm
05:18 43.7 °F /  6.5 °C 32.7 °F /  0.4 °C 30.2 in /  1023.9 hPa NNE 3.5 mph /  5.6 km/h 3.5 mph /  5.6 km/h 65 % 0 in /  0.0 mm
05:23 43.9 °F /  6.6 °C 33.3 °F /  0.7 °C 30.2 in /  1022.9 hPa NNE 2.4 mph /  3.9 km/h 2.4 mph /  3.9 km/h 66 % 0 in /  0.0 mm
05:28 44.1 °F /  6.7 °C 33.4 °F /  0.8 °C 30.2 in /  1022.9 hPa North 1.6 mph /  2.6 km/h 1.6 mph /  2.6 km/h 66 % 0 in /  0.0 mm
05:33 44.1 °F /  6.7 °C 33.4 °F /  0.8 °C 30.2 in /  1022.9 hPa North 3.5 mph /  5.6 km/h 3.5 mph /  5.6 km/h 66 % 0 in /  0.0 mm
05:38 44.1 °F /  6.7 °C 33.1 °F /  0.6 °C 30.2 in /  1023.9 hPa ENE 2.3 mph /  3.7 km/h 2.3 mph /  3.7 km/h 65 % 0 in /  0.0 mm
05:43 44.2 °F /  6.8 °C 33.6 °F /  0.9 °C 30.2 in /  1023.9 hPa East 2.3 mph /  3.7 km/h 2.3 mph /  3.7 km/h 66 % 0 in /  0.0 mm
05:48 44.2 °F /  6.8 °C 33.6 °F /  0.9 °C 30.2 in /  1023.9 hPa SSE 2.3 mph /  3.7 km/h 2.3 mph /  3.7 km/h 66 % 0 in /  0.0 mm
05:53 44.2 °F /  6.8 °C 33.6 °F /  0.9 °C 30.2 in /  1023.9 hPa NE 2.3 mph /  3.7 km/h 2.3 mph /  3.7 km/h 66 % 0 in /  0.0 mm
05:58 44.4 °F /  6.9 °C 33.8 °F /  1.0 °C 30.2 in /  1023.9 hPa WNW 2.3 mph /  3.7 km/h 2.3 mph /  3.7 km/h 66 % 0 in /  0.0 mm
06:03 44.4 °F /  6.9 °C 33.8 °F /  1.0 °C 30.2 in /  1023.9 hPa NNW 2.3 mph /  3.7 km/h 2.3 mph /  3.7 km/h 66 % 0 in /  0.0 mm
06:08 44.2 °F /  6.8 °C 33.6 °F /  0.9 °C 30.2 in /  1023.9 hPa North 2.3 mph /  3.7 km/h 2.3 mph /  3.7 km/h 66 % 0 in /  0.0 mm
06:13 44.4 °F /  6.9 °C 33.8 °F /  1.0 °C 30.2 in /  1023.9 hPa WNW 2.3 mph /  3.7 km/h 2.3 mph /  3.7 km/h 66 % 0 in /  0.0 mm
06:18 44.2 °F /  6.8 °C 33.6 °F /  0.9 °C 30.2 in /  1023.9 hPa North 2.3 mph /  3.7 km/h 2.3 mph /  3.7 km/h 66 % 0 in /  0.0 mm
06:23 44.4 °F /  6.9 °C 34.2 °F /  1.2 °C 30.2 in /  1023.9 hPa East 1.2 mph /  1.9 km/h 1.2 mph /  1.9 km/h 67 % 0 in /  0.0 mm
06:28 44.4 °F /  6.9 °C 33.8 °F /  1.0 °C 30.2 in /  1023.9 hPa NNW 2.3 mph /  3.7 km/h 2.3 mph /  3.7 km/h 66 % 0 in /  0.0 mm
06:33 44.6 °F /  7.0 °C 34.3 °F /  1.3 °C 30.2 in /  1023.9 hPa WNW 1.2 mph /  1.9 km/h   67 % 0 in /  0.0 mm
06:38 44.4 °F /  6.9 °C 33.8 °F /  1.0 °C 30.2 in /  1023.9 hPa West 2.3 mph /  3.7 km/h 2.3 mph /  3.7 km/h 66 % 0 in /  0.0 mm
06:39 44.4 °F /  6.9 °C 33.8 °F /  1.0 °C 30.2 in /  1023.9 hPa West 1.2 mph /  1.9 km/h   66 % 0 in /  0.0 mm
06:44 44.2 °F /  6.8 °C 33.6 °F /  0.9 °C 30.2 in /  1023.9 hPa West 1.4 mph /  2.3 km/h 1.4 mph /  2.3 km/h 66 % 0 in /  0.0 mm
06:49 44.2 °F /  6.8 °C 34 °F /  1.1 °C 30.2 in /  1023.9 hPa Calm     67 % 0 in /  0.0 mm
06:54 44.2 °F /  6.8 °C 34 °F /  1.1 °C 30.2 in /  1023.9 hPa Calm     67 % 0 in /  0.0 mm
06:59 44.2 °F /  6.8 °C 34 °F /  1.1 °C 30.2 in /  1023.9 hPa NNW 1.2 mph /  1.9 km/h   67 % 0 in /  0.0 mm
07:04 44.2 °F /  6.8 °C 34 °F /  1.1 °C 30.2 in /  1023.9 hPa Calm     67 % 0 in /  0.0 mm
07:09 44.1 °F /  6.7 °C 33.8 °F /  1.0 °C 30.2 in /  1023.9 hPa NW 1.2 mph /  1.9 km/h 1.2 mph /  1.9 km/h 67 % 0 in /  0.0 mm
07:14 44.1 °F /  6.7 °C 33.8 °F /  1.0 °C 30.2 in /  1023.9 hPa NW 2.3 mph /  3.7 km/h   67 % 0 in /  0.0 mm
07:19 44.1 °F /  6.7 °C 33.8 °F /  1.0 °C 30.2 in /  1023.9 hPa West 3.5 mph /  5.6 km/h 3.5 mph /  5.6 km/h 67 % 0 in /  0.0 mm
07:24 44.1 °F /  6.7 °C 33.8 °F /  1.0 °C 30.2 in /  1023.9 hPa WNW 1.2 mph /  1.9 km/h   67 % 0 in /  0.0 mm
07:29 43.9 °F /  6.6 °C 33.6 °F /  0.9 °C 30.2 in /  1023.9 hPa West 1.2 mph /  1.9 km/h 1.4 mph /  2.3 km/h 67 % 0 in /  0.0 mm
07:34 43.7 °F /  6.5 °C 33.4 °F /  0.8 °C 30.2 in /  1023.9 hPa SW 1.4 mph /  2.3 km/h 1.4 mph /  2.3 km/h 67 % 0 in /  0.0 mm
07:39 43.7 °F /  6.5 °C 33.4 °F /  0.8 °C 30.2 in /  1023.9 hPa ESE 2.3 mph /  3.7 km/h 2.3 mph /  3.7 km/h 67 % 0 in /  0.0 mm
07:44 43.9 °F /  6.6 °C 33.6 °F /  0.9 °C 30.2 in /  1023.9 hPa West 2.3 mph /  3.7 km/h 2.3 mph /  3.7 km/h 67 % 0 in /  0.0 mm
07:49 44.2 °F /  6.8 °C 34.3 °F /  1.3 °C 30.2 in /  1023.9 hPa NNW 2.3 mph /  3.7 km/h 2.3 mph /  3.7 km/h 68 % 0 in /  0.0 mm
07:54 44.4 °F /  6.9 °C 34.2 °F /  1.2 °C 30.2 in /  1023.9 hPa SW 2.3 mph /  3.7 km/h 2.3 mph /  3.7 km/h 67 % 0 in /  0.0 mm
07:59 44.8 °F /  7.1 °C 34.9 °F /  1.6 °C 30.2 in /  1023.9 hPa NW 1.2 mph /  1.9 km/h   68 % 0 in /  0.0 mm
08:04 45.1 °F /  7.3 °C 34.9 °F /  1.6 °C 30.2 in /  1023.9 hPa SW 2.3 mph /  3.7 km/h 2.3 mph /  3.7 km/h 67 % 0 in /  0.0 mm
08:09 45.7 °F /  7.6 °C 35.8 °F /  2.1 °C 30.2 in /  1023.9 hPa SW 2.3 mph /  3.7 km/h   68 % 0 in /  0.0 mm
08:14 46.4 °F /  8.0 °C 36 °F /  2.2 °C 30.2 in /  1023.9 hPa NNW 2.3 mph /  3.7 km/h 2.3 mph /  3.7 km/h 67 % 0 in /  0.0 mm
08:19 47.1 °F /  8.4 °C 36.7 °F /  2.6 °C 30.3 in /  1024.9 hPa NNW 3.5 mph /  5.6 km/h 3.5 mph /  5.6 km/h 67 % 0 in /  0.0 mm
08:24 47.5 °F /  8.6 °C 37 °F /  2.8 °C 30.3 in /  1024.9 hPa NE 2 mph /  3.2 km/h 2 mph /  3.2 km/h 67 % 0 in /  0.0 mm
08:29 48 °F /  8.9 °C 37.2 °F /  2.9 °C 30.3 in /  1024.9 hPa NNW 2.3 mph /  3.7 km/h 2.3 mph /  3.7 km/h 66 % 0 in /  0.0 mm
08:34 48.2 °F /  9.0 °C 37.4 °F /  3.0 °C 30.3 in /  1024.9 hPa ENE 2.3 mph /  3.7 km/h   66 % 0 in /  0.0 mm
08:39 48.4 °F /  9.1 °C 37.6 °F /  3.1 °C 30.3 in /  1024.9 hPa West 1.2 mph /  1.9 km/h 1.2 mph /  1.9 km/h 66 % 0 in /  0.0 mm
08:45 49.3 °F /  9.6 °C 38.5 °F /  3.6 °C 30.3 in /  1024.9 hPa ENE 2.3 mph /  3.7 km/h 2.3 mph /  3.7 km/h 66 % 0 in /  0.0 mm
08:50 49.3 °F /  9.6 °C 37.9 °F /  3.3 °C 30.3 in /  1024.9 hPa Calm     65 % 0 in /  0.0 mm
08:55 48.7 °F /  9.3 °C 37.6 °F /  3.1 °C 30.3 in /  1024.9 hPa NNE 2.3 mph /  3.7 km/h 2.3 mph /  3.7 km/h 65 % 0 in /  0.0 mm
09:00 48.4 °F /  9.1 °C 37.2 °F /  2.9 °C 30.3 in /  1024.9 hPa ENE 2.6 mph /  4.2 km/h 2.6 mph /  4.2 km/h 65 % 0 in /  0.0 mm
09:05 48.4 °F /  9.1 °C 37.2 °F /  2.9 °C 30.3 in /  1024.9 hPa ENE 3.5 mph /  5.6 km/h 3.5 mph /  5.6 km/h 65 % 0 in /  0.0 mm
09:10 48.2 °F /  9.0 °C 37 °F /  2.8 °C 30.3 in /  1024.9 hPa NW 2.3 mph /  3.7 km/h   65 % 0 in /  0.0 mm
09:15 48.4 °F /  9.1 °C 37.2 °F /  2.9 °C 30.3 in /  1024.9 hPa ENE 2.3 mph /  3.7 km/h 2.3 mph /  3.7 km/h 65 % 0 in /  0.0 mm
09:20 48.2 °F /  9.0 °C 37 °F /  2.8 °C 30.3 in /  1024.9 hPa ENE 3.5 mph /  5.6 km/h 3.5 mph /  5.6 km/h 65 % 0 in /  0.0 mm
09:25 48.2 °F /  9.0 °C 37 °F /  2.8 °C 30.3 in /  1024.9 hPa NE 1 mph /  1.6 km/h 3 mph /  4.8 km/h 65 % 0 in /  0.0 mm
09:30 48.2 °F /  9.0 °C 37 °F /  2.8 °C 30.3 in /  1024.9 hPa Calm   2 mph /  3.2 km/h 65 % 0 in /  0.0 mm
09:35 48.2 °F /  9.0 °C 37.4 °F /  3.0 °C 30.3 in /  1024.9 hPa Calm   2 mph /  3.2 km/h 66 % 0 in /  0.0 mm
09:40 48.2 °F /  9.0 °C 37.4 °F /  3.0 °C 30.3 in /  1024.9 hPa NE 2.3 mph /  3.7 km/h 2.3 mph /  3.7 km/h 66 % 0 in /  0.0 mm
09:45 48.2 °F /  9.0 °C 37.4 °F /  3.0 °C 30.3 in /  1024.9 hPa WNW 2 mph /  3.2 km/h 2 mph /  3.2 km/h 66 % 0 in /  0.0 mm
09:50 48.4 °F /  9.1 °C 37.2 °F /  2.9 °C 30.3 in /  1024.3 hPa NW 1 mph /  1.6 km/h 3 mph /  4.8 km/h 65 % 0 in /  0.0 mm
09:55 48.6 °F /  9.2 °C 37.2 °F /  2.9 °C 30.2 in /  1023.9 hPa NW 1 mph /  1.6 km/h 3 mph /  4.8 km/h 65 % 0 in /  0.0 mm
10:00 48.7 °F /  9.3 °C 37.6 °F /  3.1 °C 30.2 in /  1023.9 hPa North 1 mph /  1.6 km/h 2 mph /  3.2 km/h 65 % 0 in /  0.0 mm
10:05 48.9 °F /  9.4 °C 37.8 °F /  3.2 °C 30.2 in /  1023.9 hPa NNW 2.3 mph /  3.7 km/h 2.3 mph /  3.7 km/h 65 % 0 in /  0.0 mm
10:10 48.9 °F /  9.4 °C 38.1 °F /  3.4 °C 30.2 in /  1023.9 hPa WNW 2.3 mph /  3.7 km/h 2.3 mph /  3.7 km/h 66 % 0 in /  0.0 mm
10:15 49.1 °F /  9.5 °C 37.8 °F /  3.2 °C 30.2 in /  1023.9 hPa Calm   2 mph /  3.2 km/h 65 % 0 in /  0.0 mm
10:20 49.1 °F /  9.5 °C 37.8 °F /  3.2 °C 30.2 in /  1023.9 hPa WNW 1 mph /  1.6 km/h 3 mph /  4.8 km/h 65 % 0 in /  0.0 mm
10:25 49.1 °F /  9.5 °C 37.8 °F /  3.2 °C 30.2 in /  1023.9 hPa WSW 2.3 mph /  3.7 km/h 2.3 mph /  3.7 km/h 65 % 0 in /  0.0 mm
10:30 49.1 °F /  9.5 °C 37.8 °F /  3.2 °C 30.2 in /  1023.9 hPa Calm   1 mph /  1.6 km/h 65 % 0 in /  0.0 mm
10:35 49.3 °F /  9.6 °C 37.9 °F /  3.3 °C 30.2 in /  1023.9 hPa NE 1.2 mph /  1.9 km/h   65 % 0 in /  0.0 mm
10:40 49.3 °F /  9.6 °C 37.9 °F /  3.3 °C 30.2 in /  1023.9 hPa NE 1.2 mph /  1.9 km/h   65 % 0 in /  0.0 mm
10:45 49.5 °F /  9.7 °C 38.1 °F /  3.4 °C 30.2 in /  1023.9 hPa WNW 2.3 mph /  3.7 km/h 2.3 mph /  3.7 km/h 65 % 0 in /  0.0 mm
10:50 49.5 °F /  9.7 °C 38.1 °F /  3.4 °C 30.2 in /  1023.9 hPa Calm   2 mph /  3.2 km/h 65 % 0 in /  0.0 mm
10:55 49.6 °F /  9.8 °C 38.3 °F /  3.5 °C 30.2 in /  1023.9 hPa Calm   3 mph /  4.8 km/h 65 % 0 in /  0.0 mm
11:00 49.6 °F /  9.8 °C 38.3 °F /  3.5 °C 30.2 in /  1023.9 hPa ENE 2.3 mph /  3.7 km/h 2.3 mph /  3.7 km/h 65 % 0 in /  0.0 mm
11:05 49.6 °F /  9.8 °C 37.9 °F /  3.3 °C 30.3 in /  1024.9 hPa WNW 2.3 mph /  3.7 km/h   64 % 0 in /  0.0 mm
11:10 49.6 °F /  9.8 °C 37.9 °F /  3.3 °C 30.3 in /  1024.9 hPa ESE 2.4 mph /  3.9 km/h   64 % 0 in /  0.0 mm
11:15 49.8 °F /  9.9 °C 38.1 °F /  3.4 °C 30.3 in /  1024.9 hPa NW 1 mph /  1.6 km/h 3 mph /  4.8 km/h 64 % 0 in /  0.0 mm
11:20 49.8 °F /  9.9 °C 38.1 °F /  3.4 °C 30.3 in /  1024.3 hPa Calm   3 mph /  4.8 km/h 64 % 0 in /  0.0 mm
11:25 50 °F /  10.0 °C 38.3 °F /  3.5 °C 30.2 in /  1023.9 hPa NW 1 mph /  1.6 km/h 3 mph /  4.8 km/h 64 % 0 in /  0.0 mm
11:30 50 °F /  10.0 °C 38.3 °F /  3.5 °C 30.2 in /  1023.9 hPa ENE 3.5 mph /  5.6 km/h 3.5 mph /  5.6 km/h 64 % 0 in /  0.0 mm
11:35 50.2 °F /  10.1 °C 38.5 °F /  3.6 °C 30.2 in /  1023.9 hPa NNE 2 mph /  3.2 km/h 6 mph /  9.7 km/h 64 % 0 in /  0.0 mm
11:40 50.4 °F /  10.2 °C 38.1 °F /  3.4 °C 30.2 in /  1023.9 hPa NNE 1.2 mph /  1.9 km/h   63 % 0 in /  0.0 mm
11:45 50.4 °F /  10.2 °C 38.3 °F /  3.5 °C 30.2 in /  1023.9 hPa Calm   1 mph /  1.6 km/h 63 % 0 in /  0.0 mm
11:50 50.5 °F /  10.3 °C 38.5 °F /  3.6 °C 30.2 in /  1023.9 hPa WNW 1.2 mph /  1.9 km/h 1.2 mph /  1.9 km/h 63 % 0 in /  0.0 mm
11:55 50.7 °F /  10.4 °C 38.7 °F /  3.7 °C 30.2 in /  1023.9 hPa ENE 2.3 mph /  3.7 km/h   63 % 0 in /  0.0 mm
12:00 50.9 °F /  10.5 °C 39 °F /  3.9 °C 30.2 in /  1023.9 hPa SW 1.4 mph /  2.3 km/h   64 % 0 in /  0.0 mm
12:05 50.9 °F /  10.5 °C 39 °F /  3.9 °C 30.2 in /  1023.9 hPa ENE 3.5 mph /  5.6 km/h 3.5 mph /  5.6 km/h 64 % 0 in /  0.0 mm
12:10 50.9 °F /  10.5 °C 38.7 °F /  3.7 °C 30.2 in /  1023.9 hPa NE 1 mph /  1.6 km/h 3 mph /  4.8 km/h 63 % 0 in /  0.0 mm
12:15 51.1 °F /  10.6 °C 38.8 °F /  3.8 °C 30.2 in /  1023.9 hPa NE 2 mph /  3.2 km/h 3 mph /  4.8 km/h 63 % 0 in /  0.0 mm
12:20 51.1 °F /  10.6 °C 38.8 °F /  3.8 °C 30.2 in /  1023.9 hPa NNW 1.2 mph /  1.9 km/h   63 % 0 in /  0.0 mm
12:25 51.3 °F /  10.7 °C 39 °F /  3.9 °C 30.2 in /  1023.9 hPa WSW 2.4 mph /  3.9 km/h 2.4 mph /  3.9 km/h 63 % 0 in /  0.0 mm
12:30 51.4 °F /  10.8 °C 39.4 °F /  4.1 °C 30.2 in /  1023.9 hPa NNW 1.2 mph /  1.9 km/h   63 % 0 in /  0.0 mm
12:35 51.4 °F /  10.8 °C 39.4 °F /  4.1 °C 30.2 in /  1023.9 hPa NNW 3.5 mph /  5.6 km/h 3.5 mph /  5.6 km/h 63 % 0 in /  0.0 mm
12:40 51.4 °F /  10.8 °C 39.4 °F /  4.1 °C 30.2 in /  1023.9 hPa NNW 1 mph /  1.6 km/h 2 mph /  3.2 km/h 63 % 0 in /  0.0 mm
12:45 51.6 °F /  10.9 °C 39.7 °F /  4.3 °C 30.2 in /  1023.9 hPa West 1 mph /  1.6 km/h 2 mph /  3.2 km/h 64 % 0 in /  0.0 mm
12:50 51.8 °F /  11.0 °C 39.9 °F /  4.4 °C 30.2 in /  1023.9 hPa WSW 1 mph /  1.6 km/h 2 mph /  3.2 km/h 64 % 0 in /  0.0 mm
12:55 51.8 °F /  11.0 °C 39.9 °F /  4.4 °C 30.2 in /  1023.9 hPa Calm     64 % 0 in /  0.0 mm
13:00 52 °F /  11.1 °C 39.7 °F /  4.3 °C 30.2 in /  1023.9 hPa NE 2.3 mph /  3.7 km/h   63 % 0 in /  0.0 mm
13:05 52.2 °F /  11.2 °C 40.3 °F /  4.6 °C 30.2 in /  1023.9 hPa Calm   1 mph /  1.6 km/h 64 % 0 in /  0.0 mm
13:10 52.2 °F /  11.2 °C 40.3 °F /  4.6 °C 30.2 in /  1023.9 hPa WNW 1 mph /  1.6 km/h 2 mph /  3.2 km/h 64 % 0 in /  0.0 mm
13:15 52.3 °F /  11.3 °C 40.8 °F /  4.9 °C 30.2 in /  1023.9 hPa Calm     65 % 0 in /  0.0 mm
13:20 52.3 °F /  11.3 °C 40.8 °F /  4.9 °C 30.2 in /  1023.9 hPa SW 1.4 mph /  2.3 km/h   65 % 0 in /  0.0 mm
13:25 52.5 °F /  11.4 °C 40.6 °F /  4.8 °C 30.2 in /  1023.9 hPa SW 1.2 mph /  1.9 km/h   64 % 0 in /  0.0 mm
13:30 52.5 °F /  11.4 °C 41.2 °F /  5.1 °C 30.2 in /  1023.9 hPa SW 1 mph /  1.6 km/h 2 mph /  3.2 km/h 65 % 0 in /  0.0 mm
13:35 52.9 °F /  11.6 °C 41 °F /  5.0 °C 30.2 in /  1023.9 hPa Calm   3 mph /  4.8 km/h 64 % 0 in /  0.0 mm
13:40 53.1 °F /  11.7 °C 41.2 °F /  5.1 °C 30.2 in /  1023.9 hPa Calm   2 mph /  3.2 km/h 64 % 0 in /  0.0 mm
13:45 53.1 °F /  11.7 °C 41.2 °F /  5.1 °C 30.2 in /  1023.9 hPa West 2.3 mph /  3.7 km/h 2.3 mph /  3.7 km/h 64 % 0 in /  0.0 mm
13:50 53.2 °F /  11.8 °C 41.4 °F /  5.2 °C 30.2 in /  1022.9 hPa NW 1.2 mph /  1.9 km/h   64 % 0 in /  0.0 mm
13:55 53.4 °F /  11.9 °C 41.5 °F /  5.3 °C 30.2 in /  1022.9 hPa Calm   1 mph /  1.6 km/h 64 % 0 in /  0.0 mm
14:00 53.8 °F /  12.1 °C 42.3 °F /  5.7 °C 30.2 in /  1022.9 hPa SW 2.3 mph /  3.7 km/h 2.3 mph /  3.7 km/h 65 % 0 in /  0.0 mm
14:05 53.8 °F /  12.1 °C 42.3 °F /  5.7 °C 30.2 in /  1022.9 hPa SW 1 mph /  1.6 km/h 2 mph /  3.2 km/h 65 % 0 in /  0.0 mm
14:10 53.8 °F /  12.1 °C 41.9 °F /  5.5 °C 30.2 in /  1022.9 hPa WSW 2.3 mph /  3.7 km/h 2.3 mph /  3.7 km/h 64 % 0 in /  0.0 mm
14:15 54 °F /  12.2 °C 42.1 °F /  5.6 °C 30.2 in /  1022.9 hPa NW 2.3 mph /  3.7 km/h 2.3 mph /  3.7 km/h 64 % 0 in /  0.0 mm
14:20 54 °F /  12.2 °C 42.1 °F /  5.6 °C 30.2 in /  1022.9 hPa NW 2 mph /  3.2 km/h 4 mph /  6.4 km/h 64 % 0 in /  0.0 mm
14:25 54 °F /  12.2 °C 42.1 °F /  5.6 °C 30.2 in /  1022.9 hPa NW 2.3 mph /  3.7 km/h 2.3 mph /  3.7 km/h 64 % 0 in /  0.0 mm
14:30 54.1 °F /  12.3 °C 42.3 °F /  5.7 °C 30.2 in /  1022.9 hPa NNE 1.2 mph /  1.9 km/h   64 % 0 in /  0.0 mm
14:35 54.1 °F /  12.3 °C 42.3 °F /  5.7 °C 30.2 in /  1022.9 hPa WSW 2 mph /  3.2 km/h 2 mph /  3.2 km/h 64 % 0 in /  0.0 mm
14:40 54.3 °F /  12.4 °C 42.4 °F /  5.8 °C 30.2 in /  1022.9 hPa West 2.3 mph /  3.7 km/h   64 % 0 in /  0.0 mm
14:45 54.5 °F /  12.5 °C 42.6 °F /  5.9 °C 30.2 in /  1022.9 hPa NW 1.2 mph /  1.9 km/h   64 % 0 in /  0.0 mm
14:50 54.7 °F /  12.6 °C 42.6 °F /  5.9 °C 30.2 in /  1022.9 hPa NW 2.3 mph /  3.7 km/h 2.3 mph /  3.7 km/h 64 % 0 in /  0.0 mm
14:55 54.7 °F /  12.6 °C 42.6 °F /  5.9 °C 30.2 in /  1022.9 hPa NE 2.3 mph /  3.7 km/h 2.3 mph /  3.7 km/h 64 % 0 in /  0.0 mm
15:00 54.7 °F /  12.6 °C 42.6 °F /  5.9 °C 30.2 in /  1022.9 hPa WSW 6.9 mph /  11.1 km/h 6.9 mph /  11.1 km/h 64 % 0 in /  0.0 mm
15:05 55.6 °F /  13.1 °C 43.5 °F /  6.4 °C 30.2 in /  1022.9 hPa NW 2.6 mph /  4.2 km/h 2.6 mph /  4.2 km/h 64 % 0 in /  0.0 mm
15:08 55.9 °F /  13.3 °C 43.9 °F /  6.6 °C 30.2 in /  1022.9 hPa WNW 2.3 mph /  3.7 km/h 2.3 mph /  3.7 km/h 64 % 0 in /  0.0 mm
15:13 56.1 °F /  13.4 °C 44.1 °F /  6.7 °C 30.2 in /  1022.9 hPa NW 4.6 mph /  7.4 km/h 4.6 mph /  7.4 km/h 64 % 0 in /  0.0 mm
15:18 56.8 °F /  13.8 °C 44.4 °F /  6.9 °C 30.2 in /  1022.9 hPa NW 3.5 mph /  5.6 km/h 3.5 mph /  5.6 km/h 63 % 0 in /  0.0 mm
15:23 57 °F /  13.9 °C 45 °F /  7.2 °C 30.2 in /  1022.9 hPa WNW 2.3 mph /  3.7 km/h 2.3 mph /  3.7 km/h 64 % 0 in /  0.0 mm
15:28 57.6 °F /  14.2 °C 45.1 °F /  7.3 °C 30.2 in /  1022.9 hPa WSW 2.3 mph /  3.7 km/h 2.3 mph /  3.7 km/h 63 % 0 in /  0.0 mm
15:33 58.3 °F /  14.6 °C 45.7 °F /  7.6 °C 30.2 in /  1022.9 hPa NW 2.3 mph /  3.7 km/h 2.3 mph /  3.7 km/h 63 % 0 in /  0.0 mm
15:38 59.2 °F /  15.1 °C 46.6 °F /  8.1 °C 30.2 in /  1022.9 hPa WSW 5.8 mph /  9.3 km/h 5.8 mph /  9.3 km/h 63 % 0 in /  0.0 mm
15:43 60.1 °F /  15.6 °C 46.9 °F /  8.3 °C 30.2 in /  1022.9 hPa WNW 2.3 mph /  3.7 km/h 2.4 mph /  3.9 km/h 62 % 0 in /  0.0 mm
15:48 60.3 °F /  15.7 °C 47.1 °F /  8.4 °C 30.2 in /  1022.9 hPa WSW 4 mph /  6.4 km/h 4 mph /  6.4 km/h 62 % 0 in /  0.0 mm
15:53 60.6 °F /  15.9 °C 47.5 °F /  8.6 °C 30.2 in /  1022.9 hPa West 6.9 mph /  11.1 km/h 6.9 mph /  11.1 km/h 62 % 0 in /  0.0 mm
15:58 61.3 °F /  16.3 °C 47.8 °F /  8.8 °C 30.2 in /  1022.9 hPa WSW 3.5 mph /  5.6 km/h 3.5 mph /  5.6 km/h 61 % 0 in /  0.0 mm
16:03 61.5 °F /  16.4 °C 47.5 °F /  8.6 °C 30.2 in /  1022.9 hPa WSW 4 mph /  6.4 km/h 4 mph /  6.4 km/h 60 % 0 in /  0.0 mm
16:08 61.7 °F /  16.5 °C 47.7 °F /  8.7 °C 30.2 in /  1021.9 hPa NNW 4.6 mph /  7.4 km/h 4.6 mph /  7.4 km/h 60 % 0 in /  0.0 mm
16:13 61.9 °F /  16.6 °C 47.5 °F /  8.6 °C 30.2 in /  1021.9 hPa West 4.6 mph /  7.4 km/h 4.6 mph /  7.4 km/h 59 % 0 in /  0.0 mm
16:18 61.9 °F /  16.6 °C 47.5 °F /  8.6 °C 30.2 in /  1021.9 hPa SW 5.8 mph /  9.3 km/h 5.8 mph /  9.3 km/h 59 % 0 in /  0.0 mm
16:23 61.9 °F /  16.6 °C 47.5 °F /  8.6 °C 30.2 in /  1021.9 hPa West 4.6 mph /  7.4 km/h 4.6 mph /  7.4 km/h 59 % 0 in /  0.0 mm
16:28 61.9 °F /  16.6 °C 46.9 °F /  8.3 °C 30.2 in /  1021.9 hPa West 4.6 mph /  7.4 km/h 4.6 mph /  7.4 km/h 58 % 0 in /  0.0 mm
16:33 61.9 °F /  16.6 °C 46.6 °F /  8.1 °C 30.2 in /  1021.9 hPa West 4.6 mph /  7.4 km/h 4.6 mph /  7.4 km/h 57 % 0 in /  0.0 mm
16:38 62.1 °F /  16.7 °C 46.6 °F /  8.1 °C 30.2 in /  1021.9 hPa WSW 7.8 mph /  12.6 km/h 7.8 mph /  12.6 km/h 57 % 0 in /  0.0 mm
16:43 61.9 °F /  16.6 °C 46.6 °F /  8.1 °C 30.2 in /  1021.9 hPa West 4.6 mph /  7.4 km/h 4.6 mph /  7.4 km/h 57 % 0 in /  0.0 mm
16:48 61.7 °F /  16.5 °C 46.2 °F /  7.9 °C 30.2 in /  1021.9 hPa West 5.8 mph /  9.3 km/h 5.8 mph /  9.3 km/h 57 % 0 in /  0.0 mm
16:53 61.7 °F /  16.5 °C 46.2 °F /  7.9 °C 30.2 in /  1021.9 hPa WSW 2.3 mph /  3.7 km/h 2.3 mph /  3.7 km/h 57 % 0 in /  0.0 mm
16:58 61.7 °F /  16.5 °C 46.2 °F /  7.9 °C 30.2 in /  1021.9 hPa SW 1.2 mph /  1.9 km/h   57 % 0 in /  0.0 mm
17:03 61.5 °F /  16.4 °C 46 °F /  7.8 °C 30.2 in /  1021.9 hPa Calm     57 % 0 in /  0.0 mm
17:08 61.3 °F /  16.3 °C 46 °F /  7.8 °C 30.2 in /  1020.9 hPa SW 1.2 mph /  1.9 km/h   57 % 0 in /  0.0 mm
17:13 60.8 °F /  16.0 °C 45.5 °F /  7.5 °C 30.2 in /  1020.9 hPa WNW 2 mph /  3.2 km/h 2 mph /  3.2 km/h 57 % 0 in /  0.0 mm
17:18 60.6 °F /  15.9 °C 45.3 °F /  7.4 °C 30.2 in /  1020.9 hPa WNW 1.2 mph /  1.9 km/h   57 % 0 in /  0.0 mm
17:23 60.1 °F /  15.6 °C 45.1 °F /  7.3 °C 30.2 in /  1021.9 hPa Calm     58 % 0 in /  0.0 mm
17:25 60.1 °F /  15.6 °C 45.1 °F /  7.3 °C 30.2 in /  1021.9 hPa WNW 1.2 mph /  1.9 km/h   58 % 0 in /  0.0 mm
17:30 59.5 °F /  15.3 °C 44.8 °F /  7.1 °C 30.2 in /  1021.9 hPa WNW 1.2 mph /  1.9 km/h   58 % 0 in /  0.0 mm
17:35 59.5 °F /  15.3 °C 44.8 °F /  7.1 °C 30.2 in /  1021.9 hPa NW 2.3 mph /  3.7 km/h 2.3 mph /  3.7 km/h 58 % 0 in /  0.0 mm
17:40 59.2 °F /  15.1 °C 44.4 °F /  6.9 °C 30.2 in /  1021.9 hPa WNW 1.2 mph /  1.9 km/h 1.2 mph /  1.9 km/h 58 % 0 in /  0.0 mm
17:45 59 °F /  15.0 °C 44.8 °F /  7.1 °C 30.2 in /  1021.9 hPa West 2.3 mph /  3.7 km/h 2.3 mph /  3.7 km/h 59 % 0 in /  0.0 mm
17:50 58.6 °F /  14.8 °C 44.2 °F /  6.8 °C 30.2 in /  1021.9 hPa WSW 2.2 mph /  3.5 km/h 2.2 mph /  3.5 km/h 59 % 0 in /  0.0 mm
17:55 58.5 °F /  14.7 °C 44.2 °F /  6.8 °C 30.2 in /  1021.9 hPa SW 2.3 mph /  3.7 km/h 2.3 mph /  3.7 km/h 59 % 0 in /  0.0 mm
18:00 57.9 °F /  14.4 °C 43.7 °F /  6.5 °C 30.2 in /  1021.9 hPa WSW 2.3 mph /  3.7 km/h 2.3 mph /  3.7 km/h 59 % 0 in /  0.0 mm
18:05 57.7 °F /  14.3 °C 43.5 °F /  6.4 °C 30.2 in /  1021.9 hPa WSW 1.2 mph /  1.9 km/h   59 % 0 in /  0.0 mm
18:10 57.6 °F /  14.2 °C 43.3 °F /  6.3 °C 30.2 in /  1021.9 hPa Calm     59 % 0 in /  0.0 mm
18:15 57.2 °F /  14.0 °C 43 °F /  6.1 °C 30.2 in /  1021.9 hPa NNW 1.2 mph /  1.9 km/h   59 % 0 in /  0.0 mm
18:20 57.2 °F /  14.0 °C 43 °F /  6.1 °C 30.2 in /  1020.9 hPa NE 2.3 mph /  3.7 km/h 2.3 mph /  3.7 km/h 59 % 0 in /  0.0 mm
18:25 57.4 °F /  14.1 °C 43.5 °F /  6.4 °C 30.2 in /  1020.9 hPa NE 2.3 mph /  3.7 km/h 2.3 mph /  3.7 km/h 60 % 0 in /  0.0 mm
18:30 57.2 °F /  14.0 °C 43.3 °F /  6.3 °C 30.2 in /  1020.9 hPa ENE 2.3 mph /  3.7 km/h 2.3 mph /  3.7 km/h 60 % 0 in /  0.0 mm
18:35 57 °F /  13.9 °C 43.3 °F /  6.3 °C 30.2 in /  1021.9 hPa NE 2.3 mph /  3.7 km/h 2.3 mph /  3.7 km/h 60 % 0 in /  0.0 mm
18:40 56.5 °F /  13.6 °C 42.8 °F /  6.0 °C 30.2 in /  1021.9 hPa NNE 1.2 mph /  1.9 km/h 1.2 mph /  1.9 km/h 60 % 0 in /  0.0 mm
18:45 56.3 °F /  13.5 °C 42.6 °F /  5.9 °C 30.2 in /  1021.9 hPa Calm     60 % 0 in /  0.0 mm
18:50 56.1 °F /  13.4 °C 42.4 °F /  5.8 °C 30.2 in /  1021.9 hPa NNW 2.3 mph /  3.7 km/h 2.3 mph /  3.7 km/h 60 % 0 in /  0.0 mm
18:55 55.9 °F /  13.3 °C 42.3 °F /  5.7 °C 30.2 in /  1021.9 hPa North 2.3 mph /  3.7 km/h 2.3 mph /  3.7 km/h 60 % 0 in /  0.0 mm
19:00 55.9 °F /  13.3 °C 42.3 °F /  5.7 °C 30.2 in /  1021.9 hPa North 2.3 mph /  3.7 km/h 2.3 mph /  3.7 km/h 60 % 0 in /  0.0 mm
19:05 55.6 °F /  13.1 °C 42.3 °F /  5.7 °C 30.2 in /  1020.9 hPa NNE 2.9 mph /  4.7 km/h 2.9 mph /  4.7 km/h 61 % 0 in /  0.0 mm
19:10 55.2 °F /  12.9 °C 42.1 °F /  5.6 °C 30.2 in /  1020.9 hPa WSW 3.5 mph /  5.6 km/h 3.5 mph /  5.6 km/h 61 % 0 in /  0.0 mm
19:15 55 °F /  12.8 °C 41.7 °F /  5.4 °C 30.2 in /  1020.9 hPa NE 2.3 mph /  3.7 km/h 2.3 mph /  3.7 km/h 61 % 0 in /  0.0 mm
19:20 54.9 °F /  12.7 °C 41.7 °F /  5.4 °C 30.2 in /  1020.9 hPa WNW 1.2 mph /  1.9 km/h   61 % 0 in /  0.0 mm
19:25 54.9 °F /  12.7 °C 42.1 °F /  5.6 °C 30.2 in /  1020.9 hPa NNW 1.2 mph /  1.9 km/h 1.2 mph /  1.9 km/h 62 % 0 in /  0.0 mm
19:30 54.9 °F /  12.7 °C 42.1 °F /  5.6 °C 30.2 in /  1020.9 hPa NNW 1.2 mph /  1.9 km/h   62 % 0 in /  0.0 mm
19:35 54.5 °F /  12.5 °C 41.7 °F /  5.4 °C 30.2 in /  1020.9 hPa NE 1.2 mph /  1.9 km/h 1.2 mph /  1.9 km/h 62 % 0 in /  0.0 mm
19:40 53.8 °F /  12.1 °C 41.2 °F /  5.1 °C 30.2 in /  1020.9 hPa West 2.4 mph /  3.9 km/h 2.4 mph /  3.9 km/h 62 % 0 in /  0.0 mm
19:45 53.6 °F /  12.0 °C 40.8 °F /  4.9 °C 30.2 in /  1020.9 hPa WSW 3.5 mph /  5.6 km/h 3.5 mph /  5.6 km/h 62 % 0 in /  0.0 mm
19:50 53.6 °F /  12.0 °C 40.8 °F /  4.9 °C 30.2 in /  1021.9 hPa NW 2.3 mph /  3.7 km/h 2.3 mph /  3.7 km/h 62 % 0 in /  0.0 mm
19:55 54.1 °F /  12.3 °C 41.7 °F /  5.4 °C 30.2 in /  1021.9 hPa NW 2.3 mph /  3.7 km/h 2.3 mph /  3.7 km/h 63 % 0 in /  0.0 mm
20:00 54.7 °F /  12.6 °C 42.3 °F /  5.7 °C 30.2 in /  1021.9 hPa WNW 3.5 mph /  5.6 km/h 3.5 mph /  5.6 km/h 63 % 0 in /  0.0 mm
20:05 55.2 °F /  12.9 °C 42.8 °F /  6.0 °C 30.2 in /  1021.9 hPa SW 2.3 mph /  3.7 km/h 2.3 mph /  3.7 km/h 63 % 0 in /  0.0 mm
20:10 55.4 °F /  13.0 °C 43 °F /  6.1 °C 30.2 in /  1021.9 hPa WNW 1.4 mph /  2.3 km/h   63 % 0 in /  0.0 mm
20:15 55.4 °F /  13.0 °C 43.3 °F /  6.3 °C 30.2 in /  1021.9 hPa Calm     64 % 0 in /  0.0 mm
20:16 55.4 °F /  13.0 °C 43.3 °F /  6.3 °C 30.2 in /  1021.9 hPa Calm     64 % 0 in /  0.0 mm
20:21 55.6 °F /  13.1 °C 43.5 °F /  6.4 °C 30.2 in /  1021.9 hPa Calm     64 % 0 in /  0.0 mm
20:26 55.8 °F /  13.2 °C 43.9 °F /  6.6 °C 30.2 in /  1021.9 hPa Calm     64 % 0 in /  0.0 mm
20:31 55.8 °F /  13.2 °C 43.9 °F /  6.6 °C 30.2 in /  1021.9 hPa WNW 2.3 mph /  3.7 km/h   64 % 0 in /  0.0 mm
20:36 55.9 °F /  13.3 °C 43.9 °F /  6.6 °C 30.2 in /  1021.9 hPa NNE 2.3 mph /  3.7 km/h 2.3 mph /  3.7 km/h 64 % 0 in /  0.0 mm
20:41 55.9 °F /  13.3 °C 43.5 °F /  6.4 °C 30.2 in /  1021.9 hPa NNW 4.6 mph /  7.4 km/h 4.6 mph /  7.4 km/h 63 % 0 in /  0.0 mm
20:46 56.1 °F /  13.4 °C 43.7 °F /  6.5 °C 30.2 in /  1021.9 hPa NNW 1.2 mph /  1.9 km/h 1.2 mph /  1.9 km/h 63 % 0 in /  0.0 mm
20:51 56.3 °F /  13.5 °C 43.9 °F /  6.6 °C 30.2 in /  1021.9 hPa WNW 2.3 mph /  3.7 km/h 2.3 mph /  3.7 km/h 63 % 0 in /  0.0 mm
20:56 56.5 °F /  13.6 °C 44.1 °F /  6.7 °C 30.2 in /  1021.9 hPa SW 3.5 mph /  5.6 km/h 3.5 mph /  5.6 km/h 63 % 0 in /  0.0 mm
21:01 56.5 °F /  13.6 °C 44.1 °F /  6.7 °C 30.2 in /  1021.9 hPa WNW 2.3 mph /  3.7 km/h 2.3 mph /  3.7 km/h 63 % 0 in /  0.0 mm
21:06 56.7 °F /  13.7 °C 44.2 °F /  6.8 °C 30.2 in /  1021.9 hPa West 1.6 mph /  2.6 km/h 1.6 mph /  2.6 km/h 63 % 0 in /  0.0 mm
21:11 56.5 °F /  13.6 °C 44.1 °F /  6.7 °C 30.2 in /  1021.9 hPa North 2.3 mph /  3.7 km/h   63 % 0 in /  0.0 mm
21:16 56.3 °F /  13.5 °C 43.9 °F /  6.6 °C 30.2 in /  1021.9 hPa West 1.6 mph /  2.6 km/h 1.6 mph /  2.6 km/h 63 % 0 in /  0.0 mm
21:21 56.1 °F /  13.4 °C 43.7 °F /  6.5 °C 30.2 in /  1021.9 hPa Calm     63 % 0 in /  0.0 mm
21:26 55.8 °F /  13.2 °C 43.3 °F /  6.3 °C 30.2 in /  1021.9 hPa WNW 2.3 mph /  3.7 km/h   63 % 0 in /  0.0 mm
21:31 55.8 °F /  13.2 °C 43.3 °F /  6.3 °C 30.2 in /  1021.9 hPa WNW 3.5 mph /  5.6 km/h 3.5 mph /  5.6 km/h 63 % 0 in /  0.0 mm
21:36 55.6 °F /  13.1 °C 43.2 °F /  6.2 °C 30.2 in /  1021.9 hPa West 2.3 mph /  3.7 km/h 2.3 mph /  3.7 km/h 63 % 0 in /  0.0 mm
21:38 55.8 °F /  13.2 °C 43.3 °F /  6.3 °C 30.2 in /  1021.9 hPa SW 2.3 mph /  3.7 km/h 2.3 mph /  3.7 km/h 63 % 0 in /  0.0 mm
21:43 55.8 °F /  13.2 °C 43.3 °F /  6.3 °C 30.2 in /  1021.9 hPa North 2.3 mph /  3.7 km/h 2.3 mph /  3.7 km/h 63 % 0 in /  0.0 mm
21:48 55.6 °F /  13.1 °C 43.2 °F /  6.2 °C 30.2 in /  1021.9 hPa West 2.3 mph /  3.7 km/h 2.3 mph /  3.7 km/h 63 % 0 in /  0.0 mm
21:53 55.4 °F /  13.0 °C 43 °F /  6.1 °C 30.2 in /  1021.9 hPa West 2 mph /  3.2 km/h 2 mph /  3.2 km/h 63 % 0 in /  0.0 mm
21:58 55.4 °F /  13.0 °C 43 °F /  6.1 °C 30.2 in /  1021.9 hPa WNW 2.3 mph /  3.7 km/h   63 % 0 in /  0.0 mm
22:03 55.2 °F /  12.9 °C 42.8 °F /  6.0 °C 30.2 in /  1021.9 hPa ENE 1.2 mph /  1.9 km/h   63 % 0 in /  0.0 mm
22:08 54.9 °F /  12.7 °C 43 °F /  6.1 °C 30.2 in /  1021.9 hPa NE 1.2 mph /  1.9 km/h 1.2 mph /  1.9 km/h 64 % 0 in /  0.0 mm
22:13 54.7 °F /  12.6 °C 42.6 °F /  5.9 °C 30.2 in /  1021.9 hPa NNE 2.6 mph /  4.2 km/h 2.6 mph /  4.2 km/h 64 % 0 in /  0.0 mm
22:18 54.3 °F /  12.4 °C 42.4 °F /  5.8 °C 30.2 in /  1021.9 hPa ENE 1.6 mph /  2.6 km/h 1.6 mph /  2.6 km/h 64 % 0 in /  0.0 mm
22:23 54.3 °F /  12.4 °C 42.4 °F /  5.8 °C 30.2 in /  1021.9 hPa NNE 2.4 mph /  3.9 km/h 2.4 mph /  3.9 km/h 64 % 0 in /  0.0 mm
22:29 54 °F /  12.2 °C 42.1 °F /  5.6 °C 30.2 in /  1021.9 hPa NNE 2.3 mph /  3.7 km/h 2.3 mph /  3.7 km/h 64 % 0 in /  0.0 mm
22:34 54 °F /  12.2 °C 42.1 °F /  5.6 °C 30.2 in /  1021.9 hPa NW 1.2 mph /  1.9 km/h 1.2 mph /  1.9 km/h 64 % 0 in /  0.0 mm
22:39 54.1 °F /  12.3 °C 42.3 °F /  5.7 °C 30.2 in /  1021.9 hPa NE 2.3 mph /  3.7 km/h 2.3 mph /  3.7 km/h 64 % 0 in /  0.0 mm
22:44 53.6 °F /  12.0 °C 41.7 °F /  5.4 °C 30.2 in /  1021.9 hPa NNE 1.2 mph /  1.9 km/h 1.2 mph /  1.9 km/h 64 % 0 in /  0.0 mm
22:49 53.1 °F /  11.7 °C 41.5 °F /  5.3 °C 30.2 in /  1021.9 hPa NNE 2.3 mph /  3.7 km/h 2.3 mph /  3.7 km/h 65 % 0 in /  0.0 mm
22:54 53.1 °F /  11.7 °C 41.5 °F /  5.3 °C 30.2 in /  1021.9 hPa NNE 1.2 mph /  1.9 km/h   65 % 0 in /  0.0 mm
22:59 53.1 °F /  11.7 °C 41.5 °F /  5.3 °C 30.2 in /  1021.9 hPa ENE 1.2 mph /  1.9 km/h 1.4 mph /  2.3 km/h 65 % 0 in /  0.0 mm
23:04 52.9 °F /  11.6 °C 41.4 °F /  5.2 °C 30.2 in /  1021.9 hPa North 2.3 mph /  3.7 km/h 2.3 mph /  3.7 km/h 65 % 0 in /  0.0 mm
23:09 52.9 °F /  11.6 °C 41.4 °F /  5.2 °C 30.2 in /  1021.9 hPa North 3.1 mph /  5.0 km/h 3.1 mph /  5.0 km/h 65 % 0 in /  0.0 mm
23:14 52.9 °F /  11.6 °C 41.4 °F /  5.2 °C 30.2 in /  1021.9 hPa North 2.3 mph /  3.7 km/h 2.3 mph /  3.7 km/h 65 % 0 in /  0.0 mm
23:19 52.9 °F /  11.6 °C 41.4 °F /  5.2 °C 30.2 in /  1021.9 hPa NNE 3.5 mph /  5.6 km/h 3.5 mph /  5.6 km/h 65 % 0 in /  0.0 mm
23:24 52.9 °F /  11.6 °C 41.4 °F /  5.2 °C 30.2 in /  1021.9 hPa West 2.3 mph /  3.7 km/h 2.3 mph /  3.7 km/h 65 % 0 in /  0.0 mm
23:29 52.9 °F /  11.6 °C 41.4 °F /  5.2 °C 30.2 in /  1021.9 hPa North 3.5 mph /  5.6 km/h 3.5 mph /  5.6 km/h 65 % 0 in /  0.0 mm
23:34 52.9 °F /  11.6 °C 41.4 °F /  5.2 °C 30.2 in /  1021.9 hPa North 3.5 mph /  5.6 km/h 3.5 mph /  5.6 km/h 65 % 0 in /  0.0 mm
23:39 52.9 °F /  11.6 °C 41.4 °F /  5.2 °C 30.2 in /  1021.9 hPa North 3.5 mph /  5.6 km/h 3.5 mph /  5.6 km/h 65 % 0 in /  0.0 mm
23:44 52.7 °F /  11.5 °C 41.4 °F /  5.2 °C 30.2 in /  1021.9 hPa WNW 2.3 mph /  3.7 km/h   65 % 0 in /  0.0 mm
23:49 52.7 °F /  11.5 °C 41.7 °F /  5.4 °C 30.2 in /  1021.9 hPa NNW 1.2 mph /  1.9 km/h 1.2 mph /  1.9 km/h 66 % 0 in /  0.0 mm
23:54 52.5 °F /  11.4 °C 41.5 °F /  5.3 °C 30.2 in /  1021.9 hPa NE 1.2 mph /  1.9 km/h 1.2 mph /  1.9 km/h 66 % 0 in /  0.0 mm
23:59 52.3 °F /  11.3 °C 41.4 °F /  5.2 °C 30.2 in /  1021.9 hPa NNW 1.2 mph /  1.9 km/h   66 % 0 in /  0.0 mm
Meteo Sesrovires
Elogis d' Weather Underground - 4 mb

Guio original per  Jim McMurry - jmcmurry@mwt.net Adaptat per a la plantilla per  Wim van der Kuil - Leuven-Template.eu

Trobareu la nostra informacio del temps tambe a:

Weather Underground

AWEKAS